sensor_id;sensor_type;location;lat;lon;timestamp;pressure;altitude;pressure_sealevel;temperature;humidity
37206;BME280;23099;42.636;23.198;2023-03-04T00:01:05;91957.81;;;4.20;100.00
37206;BME280;23099;42.636;23.198;2023-03-04T00:03:32;91963.22;;;4.24;100.00
37206;BME280;23099;42.636;23.198;2023-03-04T00:05:59;91961.13;;;4.17;100.00
37206;BME280;23099;42.636;23.198;2023-03-04T00:08:25;91959.31;;;4.30;100.00
37206;BME280;23099;42.636;23.198;2023-03-04T00:10:52;91951.16;;;4.35;100.00
37206;BME280;23099;42.636;23.198;2023-03-04T00:13:20;91948.97;;;4.37;100.00
37206;BME280;23099;42.636;23.198;2023-03-04T00:15:48;91946.97;;;4.34;100.00
37206;BME280;23099;42.636;23.198;2023-03-04T00:18:15;91946.97;;;4.34;100.00
37206;BME280;23099;42.636;23.198;2023-03-04T00:20:42;91945.09;;;4.35;100.00
37206;BME280;23099;42.636;23.198;2023-03-04T00:23:08;91940.91;;;4.34;100.00
37206;BME280;23099;42.636;23.198;2023-03-04T00:25:35;91937.81;;;4.32;100.00
37206;BME280;23099;42.636;23.198;2023-03-04T00:28:02;91942.22;;;4.28;100.00
37206;BME280;23099;42.636;23.198;2023-03-04T00:30:30;91936.19;;;4.18;100.00
37206;BME280;23099;42.636;23.198;2023-03-04T00:32:57;91937.63;;;4.16;100.00
37206;BME280;23099;42.636;23.198;2023-03-04T00:35:24;91935.63;;;4.13;100.00
37206;BME280;23099;42.636;23.198;2023-03-04T00:37:51;91933.16;;;4.08;100.00
37206;BME280;23099;42.636;23.198;2023-03-04T00:40:17;91932.06;;;4.09;100.00
37206;BME280;23099;42.636;23.198;2023-03-04T00:42:44;91941.88;;;4.08;100.00
37206;BME280;23099;42.636;23.198;2023-03-04T00:45:11;91935.44;;;4.18;100.00
37206;BME280;23099;42.636;23.198;2023-03-04T00:47:39;91935.94;;;4.11;100.00
37206;BME280;23099;42.636;23.198;2023-03-04T00:50:06;91931.28;;;4.08;100.00
37206;BME280;23099;42.636;23.198;2023-03-04T00:52:33;91940.91;;;4.13;100.00
37206;BME280;23099;42.636;23.198;2023-03-04T00:55:00;91930.00;;;4.14;100.00
37206;BME280;23099;42.636;23.198;2023-03-04T00:57:26;91927.50;;;4.18;100.00
37206;BME280;23099;42.636;23.198;2023-03-04T00:59:53;91931.03;;;4.22;100.00
37206;BME280;23099;42.636;23.198;2023-03-04T01:02:20;91928.53;;;4.25;100.00
37206;BME280;23099;42.636;23.198;2023-03-04T01:04:48;91921.50;;;4.30;100.00
37206;BME280;23099;42.636;23.198;2023-03-04T01:07:14;91932.66;;;4.35;100.00
37206;BME280;23099;42.636;23.198;2023-03-04T01:09:41;91922.06;;;4.35;100.00
37206;BME280;23099;42.636;23.198;2023-03-04T01:12:08;91924.00;;;4.26;100.00
37206;BME280;23099;42.636;23.198;2023-03-04T01:14:34;91914.66;;;4.29;100.00
37206;BME280;23099;42.636;23.198;2023-03-04T01:17:01;91921.97;;;4.32;100.00
37206;BME280;23099;42.636;23.198;2023-03-04T01:19:28;91920.19;;;4.36;100.00
37206;BME280;23099;42.636;23.198;2023-03-04T01:21:56;91914.72;;;4.41;100.00
37206;BME280;23099;42.636;23.198;2023-03-04T01:24:23;91910.09;;;4.50;100.00
37206;BME280;23099;42.636;23.198;2023-03-04T01:26:49;91910.06;;;4.58;100.00
37206;BME280;23099;42.636;23.198;2023-03-04T01:29:16;91911.03;;;4.54;100.00
37206;BME280;23099;42.636;23.198;2023-03-04T01:31:43;91907.31;;;4.67;100.00
37206;BME280;23099;42.636;23.198;2023-03-04T01:34:09;91905.44;;;4.68;100.00
37206;BME280;23099;42.636;23.198;2023-03-04T01:36:36;91902.59;;;4.73;100.00
37206;BME280;23099;42.636;23.198;2023-03-04T01:39:04;91904.16;;;4.74;100.00
37206;BME280;23099;42.636;23.198;2023-03-04T01:41:31;91901.97;;;4.76;100.00
37206;BME280;23099;42.636;23.198;2023-03-04T01:43:59;91900.84;;;4.77;100.00
37206;BME280;23099;42.636;23.198;2023-03-04T01:46:26;91889.16;;;4.78;100.00
37206;BME280;23099;42.636;23.198;2023-03-04T01:48:54;91890.16;;;4.73;100.00
37206;BME280;23099;42.636;23.198;2023-03-04T01:51:20;91889.69;;;4.71;100.00
37206;BME280;23099;42.636;23.198;2023-03-04T01:53:48;91891.88;;;4.69;100.00
37206;BME280;23099;42.636;23.198;2023-03-04T01:56:23;91890.44;;;4.59;100.00
37206;BME280;23099;42.636;23.198;2023-03-04T01:59:10;91893.47;;;4.49;100.00
37206;BME280;23099;42.636;23.198;2023-03-04T02:01:38;91893.72;;;4.36;100.00
37206;BME280;23099;42.636;23.198;2023-03-04T02:04:05;91897.59;;;4.38;100.00
37206;BME280;23099;42.636;23.198;2023-03-04T02:06:33;91891.88;;;4.36;100.00
37206;BME280;23099;42.636;23.198;2023-03-04T02:09:00;91884.25;;;4.35;100.00
37206;BME280;23099;42.636;23.198;2023-03-04T02:11:28;91888.34;;;4.32;100.00
37206;BME280;23099;42.636;23.198;2023-03-04T02:13:55;91892.84;;;4.32;100.00
37206;BME280;23099;42.636;23.198;2023-03-04T02:16:22;91881.81;;;4.30;100.00
37206;BME280;23099;42.636;23.198;2023-03-04T02:18:49;91889.44;;;4.31;100.00
37206;BME280;23099;42.636;23.198;2023-03-04T02:21:18;91885.59;;;4.20;100.00
37206;BME280;23099;42.636;23.198;2023-03-04T02:23:54;91882.09;;;4.16;100.00
37206;BME280;23099;42.636;23.198;2023-03-04T02:26:25;91885.75;;;4.23;100.00
37206;BME280;23099;42.636;23.198;2023-03-04T02:28:53;91884.06;;;4.19;100.00
37206;BME280;23099;42.636;23.198;2023-03-04T02:31:25;91885.50;;;4.16;100.00
37206;BME280;23099;42.636;23.198;2023-03-04T02:33:54;91882.00;;;4.24;100.00
37206;BME280;23099;42.636;23.198;2023-03-04T02:36:22;91889.25;;;4.15;100.00
37206;BME280;23099;42.636;23.198;2023-03-04T02:38:49;91876.47;;;4.17;100.00
37206;BME280;23099;42.636;23.198;2023-03-04T02:41:19;91878.44;;;4.20;100.00
37206;BME280;23099;42.636;23.198;2023-03-04T02:43:50;91877.56;;;4.16;100.00
37206;BME280;23099;42.636;23.198;2023-03-04T02:46:17;91878.53;;;4.12;100.00
37206;BME280;23099;42.636;23.198;2023-03-04T02:48:44;91871.44;;;4.04;100.00
37206;BME280;23099;42.636;23.198;2023-03-04T02:51:11;91875.56;;;3.92;100.00
37206;BME280;23099;42.636;23.198;2023-03-04T02:53:37;91866.66;;;3.97;100.00
37206;BME280;23099;42.636;23.198;2023-03-04T02:56:04;91870.84;;;3.98;100.00
37206;BME280;23099;42.636;23.198;2023-03-04T02:58:31;91874.47;;;3.94;100.00
37206;BME280;23099;42.636;23.198;2023-03-04T03:00:59;91868.06;;;3.74;100.00
37206;BME280;23099;42.636;23.198;2023-03-04T03:03:26;91870.38;;;3.75;100.00
37206;BME280;23099;42.636;23.198;2023-03-04T03:05:53;91868.81;;;3.53;100.00
37206;BME280;23099;42.636;23.198;2023-03-04T03:08:20;91872.50;;;3.32;100.00
37206;BME280;23099;42.636;23.198;2023-03-04T03:10:46;91877.22;;;3.17;100.00
37206;BME280;23099;42.636;23.198;2023-03-04T03:13:13;91873.25;;;3.03;100.00
37206;BME280;23099;42.636;23.198;2023-03-04T03:15:40;91877.16;;;2.97;100.00
37206;BME280;23099;42.636;23.198;2023-03-04T03:18:08;91863.59;;;3.07;100.00
37206;BME280;23099;42.636;23.198;2023-03-04T03:20:35;91857.53;;;3.06;100.00
37206;BME280;23099;42.636;23.198;2023-03-04T03:23:02;91869.44;;;3.21;100.00
37206;BME280;23099;42.636;23.198;2023-03-04T03:25:29;91870.34;;;3.25;100.00
37206;BME280;23099;42.636;23.198;2023-03-04T03:27:56;91863.22;;;3.26;100.00
37206;BME280;23099;42.636;23.198;2023-03-04T03:30:22;91869.09;;;3.31;100.00
37206;BME280;23099;42.636;23.198;2023-03-04T03:32:49;91869.53;;;3.33;100.00
37206;BME280;23099;42.636;23.198;2023-03-04T03:35:17;91867.97;;;3.32;100.00
37206;BME280;23099;42.636;23.198;2023-03-04T03:37:44;91864.59;;;3.32;100.00
37206;BME280;23099;42.636;23.198;2023-03-04T03:40:13;91859.09;;;3.37;100.00
37206;BME280;23099;42.636;23.198;2023-03-04T03:42:40;91857.56;;;3.36;100.00
37206;BME280;23099;42.636;23.198;2023-03-04T03:45:07;91854.34;;;3.30;100.00
37206;BME280;23099;42.636;23.198;2023-03-04T03:47:34;91856.38;;;3.25;100.00
37206;BME280;23099;42.636;23.198;2023-03-04T03:50:01;91847.97;;;3.31;100.00
37206;BME280;23099;42.636;23.198;2023-03-04T03:52:29;91853.03;;;3.36;100.00
37206;BME280;23099;42.636;23.198;2023-03-04T03:54:55;91849.69;;;3.27;100.00
37206;BME280;23099;42.636;23.198;2023-03-04T03:57:22;91852.66;;;3.26;100.00
37206;BME280;23099;42.636;23.198;2023-03-04T03:59:49;91853.28;;;3.23;100.00
37206;BME280;23099;42.636;23.198;2023-03-04T04:02:15;91854.69;;;3.20;100.00
37206;BME280;23099;42.636;23.198;2023-03-04T04:04:42;91851.47;;;3.14;100.00
37206;BME280;23099;42.636;23.198;2023-03-04T04:07:09;91849.44;;;3.11;100.00
37206;BME280;23099;42.636;23.198;2023-03-04T04:09:37;91838.28;;;3.06;100.00
37206;BME280;23099;42.636;23.198;2023-03-04T04:12:04;91844.34;;;3.06;100.00
37206;BME280;23099;42.636;23.198;2023-03-04T04:14:31;91838.19;;;2.94;100.00
37206;BME280;23099;42.636;23.198;2023-03-04T04:16:57;91848.56;;;2.99;100.00
37206;BME280;23099;42.636;23.198;2023-03-04T04:19:24;91849.38;;;2.91;100.00
37206;BME280;23099;42.636;23.198;2023-03-04T04:21:51;91847.41;;;2.79;100.00
37206;BME280;23099;42.636;23.198;2023-03-04T04:24:18;91847.75;;;2.69;100.00
37206;BME280;23099;42.636;23.198;2023-03-04T04:26:46;91850.38;;;2.69;100.00
37206;BME280;23099;42.636;23.198;2023-03-04T04:29:13;91847.91;;;2.72;100.00
37206;BME280;23099;42.636;23.198;2023-03-04T04:31:40;91850.97;;;2.74;100.00
37206;BME280;23099;42.636;23.198;2023-03-04T04:34:07;91831.19;;;2.60;100.00
37206;BME280;23099;42.636;23.198;2023-03-04T04:36:34;91852.41;;;2.63;100.00
37206;BME280;23099;42.636;23.198;2023-03-04T04:39:01;91851.94;;;2.61;100.00
37206;BME280;23099;42.636;23.198;2023-03-04T04:41:30;91847.31;;;2.49;100.00
37206;BME280;23099;42.636;23.198;2023-03-04T04:44:01;91849.97;;;2.49;100.00
37206;BME280;23099;42.636;23.198;2023-03-04T04:46:28;91846.38;;;2.54;100.00
37206;BME280;23099;42.636;23.198;2023-03-04T04:48:55;91852.59;;;2.49;100.00
37206;BME280;23099;42.636;23.198;2023-03-04T04:51:21;91854.94;;;2.34;100.00
37206;BME280;23099;42.636;23.198;2023-03-04T04:53:48;91850.47;;;2.26;100.00
37206;BME280;23099;42.636;23.198;2023-03-04T04:56:17;91857.91;;;2.24;100.00
37206;BME280;23099;42.636;23.198;2023-03-04T04:58:47;91859.00;;;2.23;100.00
37206;BME280;23099;42.636;23.198;2023-03-04T05:01:15;91862.09;;;2.25;100.00
37206;BME280;23099;42.636;23.198;2023-03-04T05:03:42;91860.72;;;2.10;100.00
37206;BME280;23099;42.636;23.198;2023-03-04T05:06:10;91866.13;;;2.05;100.00
37206;BME280;23099;42.636;23.198;2023-03-04T05:08:37;91864.47;;;2.00;100.00
37206;BME280;23099;42.636;23.198;2023-03-04T05:11:05;91871.72;;;1.77;100.00
37206;BME280;23099;42.636;23.198;2023-03-04T05:13:32;91872.97;;;1.80;100.00
37206;BME280;23099;42.636;23.198;2023-03-04T05:15:58;91872.66;;;1.90;100.00
37206;BME280;23099;42.636;23.198;2023-03-04T05:18:27;91870.78;;;1.91;100.00
37206;BME280;23099;42.636;23.198;2023-03-04T05:20:55;91881.66;;;1.98;100.00
37206;BME280;23099;42.636;23.198;2023-03-04T05:23:22;91860.13;;;1.87;100.00
37206;BME280;23099;42.636;23.198;2023-03-04T05:25:49;91873.44;;;1.82;100.00
37206;BME280;23099;42.636;23.198;2023-03-04T05:28:16;91876.22;;;1.94;100.00
37206;BME280;23099;42.636;23.198;2023-03-04T05:30:44;91871.09;;;2.06;100.00
37206;BME280;23099;42.636;23.198;2023-03-04T05:33:12;91881.78;;;2.19;100.00
37206;BME280;23099;42.636;23.198;2023-03-04T05:35:42;91884.59;;;2.31;100.00
37206;BME280;23099;42.636;23.198;2023-03-04T05:38:10;91884.41;;;2.36;100.00
37206;BME280;23099;42.636;23.198;2023-03-04T05:40:37;91892.81;;;2.38;100.00
37206;BME280;23099;42.636;23.198;2023-03-04T05:43:04;91895.91;;;2.31;100.00
37206;BME280;23099;42.636;23.198;2023-03-04T05:45:31;91893.13;;;2.28;100.00
37206;BME280;23099;42.636;23.198;2023-03-04T05:47:57;91894.50;;;2.34;100.00
37206;BME280;23099;42.636;23.198;2023-03-04T05:50:25;91887.84;;;2.36;100.00
37206;BME280;23099;42.636;23.198;2023-03-04T05:52:53;91884.72;;;2.34;100.00
37206;BME280;23099;42.636;23.198;2023-03-04T05:55:20;91886.28;;;2.44;100.00
37206;BME280;23099;42.636;23.198;2023-03-04T05:57:46;91891.22;;;2.54;100.00
37206;BME280;23099;42.636;23.198;2023-03-04T06:00:14;91893.72;;;2.59;100.00
37206;BME280;23099;42.636;23.198;2023-03-04T06:02:42;91898.03;;;2.64;100.00
37206;BME280;23099;42.636;23.198;2023-03-04T06:05:10;91892.94;;;2.59;100.00
37206;BME280;23099;42.636;23.198;2023-03-04T06:07:36;91896.34;;;2.59;100.00
37206;BME280;23099;42.636;23.198;2023-03-04T06:10:06;91891.22;;;2.63;100.00
37206;BME280;23099;42.636;23.198;2023-03-04T06:12:33;91891.31;;;2.75;100.00
37206;BME280;23099;42.636;23.198;2023-03-04T06:15:00;91890.84;;;2.81;100.00
37206;BME280;23099;42.636;23.198;2023-03-04T06:17:27;91900.28;;;3.00;100.00
37206;BME280;23099;42.636;23.198;2023-03-04T06:19:54;91896.97;;;3.11;100.00
37206;BME280;23099;42.636;23.198;2023-03-04T06:22:20;91898.63;;;3.25;100.00
37206;BME280;23099;42.636;23.198;2023-03-04T06:24:47;91894.22;;;3.37;100.00
37206;BME280;23099;42.636;23.198;2023-03-04T06:27:15;91897.72;;;3.50;100.00
37206;BME280;23099;42.636;23.198;2023-03-04T06:29:42;91895.88;;;3.50;100.00
37206;BME280;23099;42.636;23.198;2023-03-04T06:32:09;91901.75;;;3.56;100.00
37206;BME280;23099;42.636;23.198;2023-03-04T06:34:35;91900.59;;;3.66;100.00
37206;BME280;23099;42.636;23.198;2023-03-04T06:37:02;91911.00;;;3.71;100.00
37206;BME280;23099;42.636;23.198;2023-03-04T06:39:29;91908.13;;;3.84;100.00
37206;BME280;23099;42.636;23.198;2023-03-04T06:41:55;91899.47;;;3.96;100.00
37206;BME280;23099;42.636;23.198;2023-03-04T06:44:23;91901.16;;;4.01;100.00
37206;BME280;23099;42.636;23.198;2023-03-04T06:46:50;91906.53;;;4.13;100.00
37206;BME280;23099;42.636;23.198;2023-03-04T06:49:17;91912.00;;;4.08;100.00
37206;BME280;23099;42.636;23.198;2023-03-04T06:51:44;91909.09;;;4.21;100.00
37206;BME280;23099;42.636;23.198;2023-03-04T06:54:10;91914.53;;;4.25;100.00
37206;BME280;23099;42.636;23.198;2023-03-04T06:56:37;91918.06;;;4.29;100.00
37206;BME280;23099;42.636;23.198;2023-03-04T06:59:04;91907.41;;;4.38;100.00
37206;BME280;23099;42.636;23.198;2023-03-04T07:01:32;91909.09;;;4.42;100.00
37206;BME280;23099;42.636;23.198;2023-03-04T07:04:00;91907.72;;;4.57;100.00
37206;BME280;23099;42.636;23.198;2023-03-04T07:06:27;91901.56;;;4.65;100.00
37206;BME280;23099;42.636;23.198;2023-03-04T07:08:55;91904.16;;;4.74;100.00
37206;BME280;23099;42.636;23.198;2023-03-04T07:11:22;91909.34;;;4.82;100.00
37206;BME280;23099;42.636;23.198;2023-03-04T07:13:50;91901.53;;;4.86;100.00
37206;BME280;23099;42.636;23.198;2023-03-04T07:16:20;91912.94;;;4.98;100.00
37206;BME280;23099;42.636;23.198;2023-03-04T07:18:48;91916.34;;;4.99;100.00
37206;BME280;23099;42.636;23.198;2023-03-04T07:21:15;91917.66;;;4.93;100.00
37206;BME280;23099;42.636;23.198;2023-03-04T07:23:42;91919.78;;;5.00;100.00
37206;BME280;23099;42.636;23.198;2023-03-04T07:26:10;91913.59;;;4.95;100.00
37206;BME280;23099;42.636;23.198;2023-03-04T07:28:37;91910.41;;;5.02;100.00
37206;BME280;23099;42.636;23.198;2023-03-04T07:31:08;91909.53;;;5.10;100.00
37206;BME280;23099;42.636;23.198;2023-03-04T07:33:35;91914.75;;;5.19;100.00
37206;BME280;23099;42.636;23.198;2023-03-04T07:36:03;91913.63;;;5.20;100.00
37206;BME280;23099;42.636;23.198;2023-03-04T07:38:30;91916.97;;;5.29;100.00
37206;BME280;23099;42.636;23.198;2023-03-04T07:40:57;91917.50;;;5.34;100.00
37206;BME280;23099;42.636;23.198;2023-03-04T07:43:24;91917.88;;;5.33;100.00
37206;BME280;23099;42.636;23.198;2023-03-04T07:45:51;91918.72;;;5.25;100.00
37206;BME280;23099;42.636;23.198;2023-03-04T07:48:17;91908.44;;;5.23;100.00
37206;BME280;23099;42.636;23.198;2023-03-04T07:50:44;91908.91;;;5.25;100.00
37206;BME280;23099;42.636;23.198;2023-03-04T07:53:12;91914.06;;;5.22;100.00
37206;BME280;23099;42.636;23.198;2023-03-04T07:55:39;91915.09;;;5.17;100.00
37206;BME280;23099;42.636;23.198;2023-03-04T07:58:05;91911.22;;;5.27;100.00
37206;BME280;23099;42.636;23.198;2023-03-04T08:00:32;91908.91;;;5.25;100.00
37206;BME280;23099;42.636;23.198;2023-03-04T08:02:59;91914.09;;;5.34;100.00
37206;BME280;23099;42.636;23.198;2023-03-04T08:05:25;91905.28;;;5.30;99.20
37206;BME280;23099;42.636;23.198;2023-03-04T08:07:52;91914.75;;;5.19;99.92
37206;BME280;23099;42.636;23.198;2023-03-04T08:10:23;91911.88;;;5.24;98.92
37206;BME280;23099;42.636;23.198;2023-03-04T08:12:50;91912.44;;;5.17;100.00
37206;BME280;23099;42.636;23.198;2023-03-04T08:15:16;91915.22;;;5.33;99.83
37206;BME280;23099;42.636;23.198;2023-03-04T08:17:43;91910.25;;;5.44;99.96
37206;BME280;23099;42.636;23.198;2023-03-04T08:20:11;91914.13;;;5.46;98.33
37206;BME280;23099;42.636;23.198;2023-03-04T08:22:38;91909.16;;;5.57;97.99
37206;BME280;23099;42.636;23.198;2023-03-04T08:25:05;91904.50;;;5.54;98.42
37206;BME280;23099;42.636;23.198;2023-03-04T08:27:33;91908.94;;;5.62;98.53
37206;BME280;23099;42.636;23.198;2023-03-04T08:30:01;91901.66;;;5.71;96.90
37206;BME280;23099;42.636;23.198;2023-03-04T08:32:28;91900.53;;;5.72;96.84
37206;BME280;23099;42.636;23.198;2023-03-04T08:34:55;91903.06;;;5.81;96.59
37206;BME280;23099;42.636;23.198;2023-03-04T08:37:21;91897.22;;;5.99;97.39
37206;BME280;23099;42.636;23.198;2023-03-04T08:39:48;91894.88;;;6.10;96.52
37206;BME280;23099;42.636;23.198;2023-03-04T08:42:15;91891.56;;;6.13;96.39
37206;BME280;23099;42.636;23.198;2023-03-04T08:44:43;91887.91;;;6.18;95.71
37206;BME280;23099;42.636;23.198;2023-03-04T08:47:09;91893.97;;;6.30;95.83
37206;BME280;23099;42.636;23.198;2023-03-04T08:49:36;91897.34;;;6.43;93.64
37206;BME280;23099;42.636;23.198;2023-03-04T08:52:03;91893.38;;;6.37;94.67
37206;BME280;23099;42.636;23.198;2023-03-04T08:54:30;91895.91;;;6.46;95.47
37206;BME280;23099;42.636;23.198;2023-03-04T08:56:57;91896.56;;;6.43;93.59
37206;BME280;23099;42.636;23.198;2023-03-04T08:59:23;91893.47;;;6.41;93.41
37206;BME280;23099;42.636;23.198;2023-03-04T09:01:51;91891.28;;;6.43;95.45
37206;BME280;23099;42.636;23.198;2023-03-04T09:04:18;91888.38;;;6.48;95.01
37206;BME280;23099;42.636;23.198;2023-03-04T09:06:45;91891.13;;;6.51;94.17
37206;BME280;23099;42.636;23.198;2023-03-04T09:09:11;91889.00;;;6.57;93.04
37206;BME280;23099;42.636;23.198;2023-03-04T09:11:38;91889.63;;;6.66;94.11
37206;BME280;23099;42.636;23.198;2023-03-04T09:14:05;91887.19;;;6.73;93.58
37206;BME280;23099;42.636;23.198;2023-03-04T09:16:31;91886.16;;;6.78;92.34
37206;BME280;23099;42.636;23.198;2023-03-04T09:19:00;91883.91;;;6.80;91.86
37206;BME280;23099;42.636;23.198;2023-03-04T09:21:26;91883.84;;;6.76;92.23
37206;BME280;23099;42.636;23.198;2023-03-04T09:23:53;91876.66;;;6.77;91.43
37206;BME280;23099;42.636;23.198;2023-03-04T09:26:22;91874.13;;;6.68;90.98
37206;BME280;23099;42.636;23.198;2023-03-04T09:28:50;91877.81;;;6.63;91.82
37206;BME280;23099;42.636;23.198;2023-03-04T09:31:16;91883.53;;;6.65;91.66
37206;BME280;23099;42.636;23.198;2023-03-04T09:33:43;91876.22;;;6.74;89.97
37206;BME280;23099;42.636;23.198;2023-03-04T09:36:13;91869.47;;;6.77;90.35
37206;BME280;23099;42.636;23.198;2023-03-04T09:38:41;91886.00;;;6.86;89.25
37206;BME280;23099;42.636;23.198;2023-03-04T09:41:09;91874.72;;;6.89;90.25
37206;BME280;23099;42.636;23.198;2023-03-04T09:43:39;91877.59;;;6.84;89.00
37206;BME280;23099;42.636;23.198;2023-03-04T09:46:09;91875.22;;;6.95;90.03
37206;BME280;23099;42.636;23.198;2023-03-04T09:48:42;91874.44;;;6.94;87.77
37206;BME280;23099;42.636;23.198;2023-03-04T09:51:24;91869.22;;;6.98;88.63
37206;BME280;23099;42.636;23.198;2023-03-04T09:54:04;91872.91;;;7.09;88.85
37206;BME280;23099;42.636;23.198;2023-03-04T09:56:34;91875.09;;;7.19;87.75
37206;BME280;23099;42.636;23.198;2023-03-04T09:59:08;91873.81;;;7.29;85.40
37206;BME280;23099;42.636;23.198;2023-03-04T10:01:41;91873.56;;;7.18;80.84
37206;BME280;23099;42.636;23.198;2023-03-04T10:04:13;91868.03;;;7.11;80.36
37206;BME280;23099;42.636;23.198;2023-03-04T10:06:43;91858.81;;;7.21;83.05
37206;BME280;23099;42.636;23.198;2023-03-04T10:09:20;91857.84;;;7.29;83.71
37206;BME280;23099;42.636;23.198;2023-03-04T10:11:54;91851.34;;;7.42;84.81
37206;BME280;23099;42.636;23.198;2023-03-04T10:14:34;91854.66;;;7.55;84.47
37206;BME280;23099;42.636;23.198;2023-03-04T10:17:09;91849.25;;;7.51;84.46
37206;BME280;23099;42.636;23.198;2023-03-04T10:19:53;91847.31;;;7.64;83.82
37206;BME280;23099;42.636;23.198;2023-03-04T10:22:30;91848.22;;;7.71;85.02
37206;BME280;23099;42.636;23.198;2023-03-04T10:25:04;91846.34;;;7.72;82.27
37206;BME280;23099;42.636;23.198;2023-03-04T10:27:36;91841.34;;;7.70;83.80
37206;BME280;23099;42.636;23.198;2023-03-04T10:30:05;91835.59;;;7.68;84.75
37206;BME280;23099;42.636;23.198;2023-03-04T10:32:36;91831.59;;;7.94;85.19
37206;BME280;23099;42.636;23.198;2023-03-04T10:35:08;91819.50;;;7.96;84.72
37206;BME280;23099;42.636;23.198;2023-03-04T10:37:48;91823.47;;;8.22;84.70
37206;BME280;23099;42.636;23.198;2023-03-04T10:40:24;91815.97;;;8.27;85.04
37206;BME280;23099;42.636;23.198;2023-03-04T10:42:52;91822.09;;;8.47;85.22
37206;BME280;23099;42.636;23.198;2023-03-04T10:45:20;91807.72;;;8.51;85.18
37206;BME280;23099;42.636;23.198;2023-03-04T10:47:52;91802.66;;;8.66;84.45
37206;BME280;23099;42.636;23.198;2023-03-04T10:50:22;91799.94;;;8.62;84.14
37206;BME280;23099;42.636;23.198;2023-03-04T10:52:50;91794.72;;;8.69;84.37
37206;BME280;23099;42.636;23.198;2023-03-04T10:55:21;91792.66;;;8.82;82.51
37206;BME280;23099;42.636;23.198;2023-03-04T10:57:49;91791.50;;;9.02;82.89
37206;BME280;23099;42.636;23.198;2023-03-04T11:00:24;91786.34;;;9.36;83.73
37206;BME280;23099;42.636;23.198;2023-03-04T11:02:51;91780.66;;;9.37;79.98
37206;BME280;23099;42.636;23.198;2023-03-04T11:05:20;91778.03;;;9.41;80.41
37206;BME280;23099;42.636;23.198;2023-03-04T11:07:48;91780.47;;;9.27;81.88
37206;BME280;23099;42.636;23.198;2023-03-04T11:10:19;91777.56;;;9.12;81.96
37206;BME280;23099;42.636;23.198;2023-03-04T11:12:51;91774.31;;;9.00;82.16
37206;BME280;23099;42.636;23.198;2023-03-04T11:15:22;91759.78;;;8.94;81.78
37206;BME280;23099;42.636;23.198;2023-03-04T11:17:54;91762.06;;;8.72;83.07
37206;BME280;23099;42.636;23.198;2023-03-04T11:20:28;91756.03;;;8.75;83.99
37206;BME280;23099;42.636;23.198;2023-03-04T11:23:00;91760.47;;;8.91;84.62
37206;BME280;23099;42.636;23.198;2023-03-04T11:25:32;91745.66;;;8.93;84.22
37206;BME280;23099;42.636;23.198;2023-03-04T11:28:02;91755.53;;;8.70;84.27
37206;BME280;23099;42.636;23.198;2023-03-04T11:30:39;91749.19;;;8.55;85.20
37206;BME280;23099;42.636;23.198;2023-03-04T11:33:13;91749.38;;;8.66;84.80
37206;BME280;23099;42.636;23.198;2023-03-04T11:35:51;91746.66;;;8.85;84.17
37206;BME280;23099;42.636;23.198;2023-03-04T11:38:21;91742.81;;;8.82;85.04
37206;BME280;23099;42.636;23.198;2023-03-04T11:40:53;91733.34;;;8.85;85.02
37206;BME280;23099;42.636;23.198;2023-03-04T11:43:25;91735.81;;;8.74;83.57
37206;BME280;23099;42.636;23.198;2023-03-04T11:49:14;91724.81;;;8.76;86.12
37206;BME280;23099;42.636;23.198;2023-03-04T11:51:53;91725.06;;;8.90;85.01
37206;BME280;23099;42.636;23.198;2023-03-04T11:54:29;91724.19;;;9.32;81.33
37206;BME280;23099;42.636;23.198;2023-03-04T11:57:04;91715.25;;;9.20;81.24
37206;BME280;23099;42.636;23.198;2023-03-04T11:59:48;91725.38;;;9.11;83.17
37206;BME280;23099;42.636;23.198;2023-03-04T12:02:20;91721.06;;;9.03;83.48
37206;BME280;23099;42.636;23.198;2023-03-04T12:05:04;91726.13;;;9.08;83.18
37206;BME280;23099;42.636;23.198;2023-03-04T12:07:47;91713.22;;;8.88;83.15
37206;BME280;23099;42.636;23.198;2023-03-04T12:10:24;91709.06;;;8.90;83.71
37206;BME280;23099;42.636;23.198;2023-03-04T12:13:15;91708.75;;;8.95;82.67
37206;BME280;23099;42.636;23.198;2023-03-04T12:15:50;91713.50;;;8.82;81.89
37206;BME280;23099;42.636;23.198;2023-03-04T12:18:31;91704.44;;;8.87;83.95
37206;BME280;23099;42.636;23.198;2023-03-04T12:21:13;91703.50;;;8.76;83.12
37206;BME280;23099;42.636;23.198;2023-03-04T12:26:54;91698.63;;;8.59;83.04
37206;BME280;23099;42.636;23.198;2023-03-04T12:29:28;91693.72;;;8.61;84.28
37206;BME280;23099;42.636;23.198;2023-03-04T12:32:00;91703.53;;;8.57;83.24
37206;BME280;23099;42.636;23.198;2023-03-04T12:34:46;91699.22;;;8.48;82.32
37206;BME280;23099;42.636;23.198;2023-03-04T12:40:18;91695.31;;;8.42;84.11
37206;BME280;23099;42.636;23.198;2023-03-04T12:43:00;91689.97;;;8.42;84.37
37206;BME280;23099;42.636;23.198;2023-03-04T12:45:39;91689.97;;;8.42;85.00
37206;BME280;23099;42.636;23.198;2023-03-04T12:48:18;91683.59;;;8.47;84.67
37206;BME280;23099;42.636;23.198;2023-03-04T12:50:57;91687.22;;;8.35;83.36
37206;BME280;23099;42.636;23.198;2023-03-04T12:53:32;91678.13;;;8.40;84.13
37206;BME280;23099;42.636;23.198;2023-03-04T12:56:02;91686.78;;;8.33;83.77
37206;BME280;23099;42.636;23.198;2023-03-04T12:58:32;91675.97;;;8.26;83.39
37206;BME280;23099;42.636;23.198;2023-03-04T13:01:07;91674.13;;;8.07;84.61
37206;BME280;23099;42.636;23.198;2023-03-04T13:03:42;91666.41;;;8.02;84.78
37206;BME280;23099;42.636;23.198;2023-03-04T13:06:19;91668.38;;;8.05;85.69
37206;BME280;23099;42.636;23.198;2023-03-04T13:08:53;91669.84;;;8.03;85.91
37206;BME280;23099;42.636;23.198;2023-03-04T13:14:26;91663.34;;;7.62;85.95